createdAt,value
2018-10-19T00:00:50.737Z,6.80
2018-10-19T00:03:19.584Z,6.23
2018-10-19T00:05:48.257Z,6.60
2018-10-19T00:08:16.907Z,7.00
2018-10-19T00:10:45.623Z,7.67
2018-10-19T00:13:14.236Z,6.93
2018-10-19T00:15:42.951Z,6.20
2018-10-19T00:18:11.661Z,7.10
2018-10-19T00:20:40.365Z,7.77
2018-10-19T00:23:09.089Z,6.67
2018-10-19T00:25:37.721Z,6.63
2018-10-19T00:28:06.459Z,7.50
2018-10-19T00:30:35.344Z,7.10
2018-10-19T00:33:04.123Z,7.70
2018-10-19T00:35:32.835Z,6.90
2018-10-19T00:38:01.627Z,7.83
2018-10-19T00:40:30.365Z,7.47
2018-10-19T00:42:59.073Z,7.30
2018-10-19T00:45:33.052Z,8.03
2018-10-19T00:48:17.433Z,7.47
2018-10-19T00:50:46.176Z,7.73
2018-10-19T00:53:15.249Z,7.23
2018-10-19T00:55:43.907Z,8.00
2018-10-19T00:58:12.603Z,6.73
2018-10-19T01:00:42.445Z,7.97
2018-10-19T01:03:11.383Z,7.37
2018-10-19T01:05:40.821Z,7.57
2018-10-19T01:08:10.170Z,8.00
2018-10-19T01:10:38.916Z,8.60
2018-10-19T01:13:07.600Z,8.47
2018-10-19T01:15:36.333Z,8.70
2018-10-19T01:18:05.133Z,8.33
2018-10-19T01:20:33.846Z,9.07
2018-10-19T01:23:02.632Z,9.17
2018-10-19T01:25:31.337Z,8.97
2018-10-19T01:28:00.095Z,9.63
2018-10-19T01:30:28.859Z,9.00
2018-10-19T01:32:57.765Z,9.60
2018-10-19T01:35:26.479Z,9.10
2018-10-19T01:37:55.184Z,8.37
2018-10-19T01:40:23.897Z,8.80
2018-10-19T01:42:52.590Z,10.13
2018-10-19T01:45:21.309Z,9.97
2018-10-19T01:47:49.996Z,9.40
2018-10-19T01:50:18.706Z,10.00
2018-10-19T01:52:47.428Z,10.00
2018-10-19T01:55:16.254Z,10.27
2018-10-19T01:57:44.961Z,9.80
2018-10-19T02:00:13.670Z,10.40
2018-10-19T02:02:42.408Z,10.33
2018-10-19T02:05:11.301Z,10.73
2018-10-19T02:07:40.022Z,11.90
2018-10-19T02:10:08.737Z,10.50
2018-10-19T02:12:37.689Z,11.20
2018-10-19T02:15:07.547Z,11.57
2018-10-19T02:17:36.246Z,12.10
2018-10-19T02:20:05.111Z,12.23
2018-10-19T02:22:33.838Z,11.47
2018-10-19T02:25:02.573Z,12.20
2018-10-19T02:27:31.303Z,11.63
2018-10-19T02:30:00.042Z,11.27
2018-10-19T02:32:28.789Z,11.00
2018-10-19T02:34:57.594Z,10.57
2018-10-19T02:37:26.317Z,9.97
2018-10-19T02:39:55.075Z,10.73
2018-10-19T02:42:23.796Z,9.87
2018-10-19T02:44:52.477Z,10.70
2018-10-19T02:47:21.220Z,11.23
2018-10-19T02:49:49.980Z,10.83
2018-10-19T02:52:18.737Z,11.13
2018-10-19T02:54:47.468Z,11.83
2018-10-19T02:57:16.281Z,12.03
2018-10-19T02:59:44.904Z,10.30
2018-10-19T03:02:13.645Z,10.70
2018-10-19T03:04:42.361Z,11.50
2018-10-19T03:07:12.049Z,10.40
2018-10-19T03:09:40.772Z,10.27
2018-10-19T03:12:09.515Z,10.23
2018-10-19T03:14:38.254Z,10.57
2018-10-19T03:17:07.266Z,10.27
2018-10-19T03:19:35.887Z,10.20
2018-10-19T03:22:04.861Z,11.30
2018-10-19T03:24:33.604Z,10.43
2018-10-19T03:27:02.440Z,10.87
2018-10-19T03:29:31.095Z,9.40
2018-10-19T03:31:59.794Z,10.57
2018-10-19T03:34:28.514Z,10.33
2018-10-19T03:36:57.240Z,10.13
2018-10-19T03:39:25.995Z,10.30
2018-10-19T03:41:54.705Z,9.83
2018-10-19T03:44:23.451Z,9.87
2018-10-19T03:46:52.193Z,9.63
2018-10-19T03:49:20.928Z,9.47
2018-10-19T03:51:49.665Z,8.23
2018-10-19T03:54:18.911Z,8.03
2018-10-19T03:56:47.599Z,8.77
2018-10-19T03:59:16.438Z,8.13
2018-10-19T04:01:45.148Z,7.87
2018-10-19T04:04:13.823Z,8.03
2018-10-19T04:06:42.525Z,7.13
2018-10-19T04:09:13.103Z,7.87
2018-10-19T04:11:42.128Z,7.20
2018-10-19T04:14:11.799Z,7.63
2018-10-19T04:16:40.674Z,6.40
2018-10-19T04:19:10.092Z,6.73
2018-10-19T04:21:38.829Z,6.30
2018-10-19T04:24:07.887Z,6.00
2018-10-19T04:26:36.594Z,6.47
2018-10-19T04:29:05.814Z,5.83
2018-10-19T04:31:34.501Z,5.97
2018-10-19T04:34:03.211Z,6.07
2018-10-19T04:36:31.921Z,5.80
2018-10-19T04:39:00.654Z,5.27
2018-10-19T04:41:29.377Z,5.20
2018-10-19T04:43:58.088Z,5.10
2018-10-19T04:46:26.792Z,4.50
2018-10-19T04:48:55.521Z,5.00
2018-10-19T04:51:24.265Z,4.80
2018-10-19T04:53:53.057Z,4.33
2018-10-19T04:56:21.689Z,4.83
2018-10-19T04:58:50.426Z,4.40
2018-10-19T05:01:19.138Z,4.37
2018-10-19T05:03:47.826Z,4.50
2018-10-19T05:06:16.653Z,4.63
2018-10-19T05:08:45.300Z,4.97
2018-10-19T05:11:14.021Z,4.20
2018-10-19T05:13:42.713Z,4.47
2018-10-19T05:16:11.433Z,4.17
2018-10-19T05:18:40.111Z,4.03
2018-10-19T05:21:08.825Z,4.80
2018-10-19T05:23:37.587Z,4.10
2018-10-19T05:26:06.682Z,4.40
2018-10-19T05:28:35.425Z,3.90
2018-10-19T05:31:04.192Z,4.03
2018-10-19T05:33:32.889Z,3.77
2018-10-19T05:36:01.669Z,3.80
2018-10-19T05:38:30.381Z,4.10
2018-10-19T05:40:59.101Z,3.60
2018-10-19T05:43:27.771Z,3.40
2018-10-19T05:45:56.501Z,3.40
2018-10-19T05:48:25.242Z,3.23
2018-10-19T05:50:54.009Z,3.27
2018-10-19T05:53:22.689Z,3.00
2018-10-19T05:55:51.386Z,2.90
2018-10-19T05:58:20.105Z,2.60
2018-10-19T06:00:48.823Z,2.90
2018-10-19T06:03:17.532Z,3.20
2018-10-19T06:05:46.227Z,3.30
2018-10-19T06:08:14.998Z,3.37
2018-10-19T06:10:43.701Z,3.40
2018-10-19T06:13:12.445Z,4.27
2018-10-19T06:15:41.144Z,4.10
2018-10-19T06:18:09.871Z,3.67
2018-10-19T06:20:38.558Z,4.27
2018-10-19T06:23:07.361Z,4.37
2018-10-19T06:25:36.233Z,4.03
2018-10-19T06:28:04.985Z,4.07
2018-10-19T06:30:33.676Z,4.37
2018-10-19T06:33:02.467Z,4.63
2018-10-19T06:35:31.171Z,4.90
2018-10-19T06:37:59.878Z,5.20
2018-10-19T06:40:28.590Z,5.17
2018-10-19T06:42:57.289Z,6.00
2018-10-19T06:45:26.001Z,5.50
2018-10-19T06:47:55.316Z,6.43
2018-10-19T06:50:24.048Z,6.53
2018-10-19T06:52:52.798Z,7.17
2018-10-19T06:55:21.546Z,7.43
2018-10-19T06:57:50.278Z,7.77
2018-10-19T07:00:18.984Z,7.70
2018-10-19T07:02:47.691Z,7.70
2018-10-19T07:05:16.549Z,7.20
2018-10-19T07:07:45.220Z,7.93
2018-10-19T07:10:14.027Z,6.87
2018-10-19T07:12:42.760Z,6.97
2018-10-19T07:15:11.650Z,6.40
2018-10-19T07:17:40.360Z,6.00
2018-10-19T07:20:10.384Z,6.43
2018-10-19T07:22:39.249Z,6.53
2018-10-19T07:25:08.325Z,6.40
2018-10-19T07:27:37.013Z,6.33
2018-10-19T07:30:06.130Z,6.53
2018-10-19T07:32:34.931Z,6.53
2018-10-19T07:35:03.674Z,6.30
2018-10-19T07:37:32.396Z,6.90
2018-10-19T07:40:01.095Z,6.33
2018-10-19T07:42:29.876Z,7.10
2018-10-19T07:44:58.590Z,6.27
2018-10-19T07:47:27.342Z,6.70
2018-10-19T07:49:56.261Z,6.33
2018-10-19T07:52:24.991Z,6.47
2018-10-19T07:54:53.814Z,7.07
2018-10-19T07:57:22.509Z,6.50
2018-10-19T07:59:51.222Z,5.83
2018-10-19T08:02:19.997Z,6.17
2018-10-19T08:04:48.732Z,6.23
2018-10-19T08:07:17.426Z,6.10
2018-10-19T08:09:46.161Z,6.30
2018-10-19T08:12:14.881Z,6.33
2018-10-19T08:14:43.636Z,6.27
2018-10-19T08:17:12.464Z,6.03
2018-10-19T08:19:41.159Z,5.40
2018-10-19T08:22:09.856Z,5.30
2018-10-19T08:24:38.656Z,6.17
2018-10-19T08:27:07.395Z,5.50
2018-10-19T08:29:36.089Z,6.17
2018-10-19T08:32:05.305Z,5.80
2018-10-19T08:34:33.984Z,5.70
2018-10-19T08:37:02.691Z,5.70
2018-10-19T08:39:31.718Z,5.87
2018-10-19T08:42:00.652Z,5.40
2018-10-19T08:44:29.922Z,6.07
2018-10-19T08:46:58.662Z,5.77
2018-10-19T08:49:27.412Z,5.50
2018-10-19T08:51:56.189Z,5.70
2018-10-19T08:54:31.179Z,5.63
2018-10-19T08:57:00.005Z,5.63
2018-10-19T08:59:28.919Z,5.60
2018-10-19T09:01:57.690Z,5.77
2018-10-19T09:04:26.432Z,6.53
2018-10-19T09:06:55.169Z,5.83
2018-10-19T09:09:23.879Z,6.20
2018-10-19T09:11:52.736Z,5.80
2018-10-19T09:14:32.372Z,6.30
2018-10-19T09:17:01.226Z,5.97
2018-10-19T09:19:29.930Z,6.50
2018-10-19T09:21:58.691Z,6.23
2018-10-19T09:24:27.441Z,6.63
2018-10-19T09:26:56.239Z,6.57
2018-10-19T09:29:24.962Z,6.40
2018-10-19T09:31:53.730Z,6.27
2018-10-19T09:34:22.444Z,6.70
2018-10-19T09:36:51.196Z,6.27
2018-10-19T09:39:20.093Z,6.67
2018-10-19T09:41:48.866Z,7.17
2018-10-19T09:44:17.568Z,6.87
2018-10-19T09:46:46.272Z,6.57
2018-10-19T09:49:15.047Z,5.83
2018-10-19T09:51:43.781Z,7.03
2018-10-19T09:54:12.937Z,7.07
2018-10-19T09:56:41.824Z,7.07
2018-10-19T09:59:10.620Z,7.80
2018-10-19T10:01:40.395Z,7.27
2018-10-19T10:04:09.082Z,6.50
2018-10-19T10:06:37.867Z,6.70
2018-10-19T10:09:13.778Z,7.23
2018-10-19T10:11:42.571Z,6.33
2018-10-19T10:14:11.446Z,6.57
2018-10-19T10:16:40.349Z,5.87
2018-10-19T10:19:09.831Z,5.90
2018-10-19T10:21:38.833Z,6.03
2018-10-19T10:24:08.530Z,6.30
2018-10-19T10:26:37.247Z,6.80
2018-10-19T10:29:06.616Z,7.13
2018-10-19T10:31:35.573Z,7.13
2018-10-19T10:34:04.362Z,6.47
2018-10-19T10:36:33.062Z,6.67
2018-10-19T10:39:01.856Z,6.20
2018-10-19T10:41:30.570Z,6.53
2018-10-19T10:43:59.261Z,5.70
2018-10-19T10:46:28.023Z,6.87
2018-10-19T10:48:56.773Z,5.90
2018-10-19T10:51:25.499Z,6.83
2018-10-19T10:53:54.242Z,6.10
2018-10-19T10:56:22.975Z,6.00
2018-10-19T10:58:51.777Z,5.90
2018-10-19T11:01:20.537Z,6.20
2018-10-19T11:03:49.336Z,6.40
2018-10-19T11:06:18.096Z,6.80
2018-10-19T11:08:46.829Z,6.97
2018-10-19T11:11:16.025Z,7.10
2018-10-19T11:13:45.216Z,7.10
2018-10-19T11:16:14.492Z,7.07
2018-10-19T11:18:43.128Z,6.93
2018-10-19T11:21:11.459Z,6.03
2018-10-19T11:23:40.260Z,6.27
2018-10-19T11:26:08.995Z,6.53
2018-10-19T11:28:39.575Z,6.40
2018-10-19T11:31:08.402Z,6.53
2018-10-19T11:33:37.166Z,7.60
2018-10-19T11:36:05.968Z,7.67
2018-10-19T11:38:34.728Z,7.40
2018-10-19T11:41:03.728Z,6.77
2018-10-19T11:43:32.438Z,6.20
2018-10-19T11:46:01.251Z,6.50
2018-10-19T11:48:29.988Z,6.63
2018-10-19T11:50:58.737Z,5.87
2018-10-19T11:53:27.463Z,6.03
2018-10-19T11:55:56.215Z,5.93
2018-10-19T11:58:24.962Z,5.70
2018-10-19T12:00:53.765Z,6.17
2018-10-19T12:03:22.553Z,5.60
2018-10-19T12:05:51.343Z,5.83
2018-10-19T12:08:20.076Z,6.37
2018-10-19T12:10:48.971Z,5.87
2018-10-19T12:13:17.547Z,5.57
2018-10-19T12:15:46.357Z,6.50
2018-10-19T12:18:15.051Z,5.80
2018-10-19T12:20:43.824Z,5.37
2018-10-19T12:23:12.764Z,5.67
2018-10-19T12:25:41.512Z,5.90
2018-10-19T12:28:10.244Z,5.50
2018-10-19T12:30:39.024Z,5.03
2018-10-19T12:33:07.783Z,5.30
2018-10-19T12:35:36.580Z,4.77
2018-10-19T12:38:05.392Z,4.83
2018-10-19T12:40:34.119Z,5.23
2018-10-19T12:43:02.903Z,4.87
2018-10-19T12:46:42.025Z,4.93
2018-10-19T12:49:11.733Z,4.67
2018-10-19T12:51:40.461Z,5.17
2018-10-19T12:54:09.621Z,4.83
2018-10-19T12:56:38.393Z,4.97
2018-10-19T12:59:07.623Z,4.90
2018-10-19T13:01:36.391Z,4.97
2018-10-19T13:04:05.437Z,4.87
2018-10-19T13:06:34.249Z,4.63
2018-10-19T13:09:05.025Z,4.43
2018-10-19T13:11:33.741Z,4.63
2018-10-19T13:14:02.441Z,4.13
2018-10-19T13:16:31.205Z,4.47
2018-10-19T13:18:59.997Z,4.60
2018-10-19T13:21:28.661Z,4.67
2018-10-19T13:23:57.432Z,4.30
2018-10-19T13:26:26.183Z,3.80
2018-10-19T13:28:54.989Z,3.40
2018-10-19T13:31:23.740Z,3.92
2018-10-19T13:33:52.548Z,3.80
2018-10-19T13:36:21.264Z,4.03
2018-10-19T13:38:49.998Z,3.47
2018-10-19T13:41:18.745Z,3.37
2018-10-19T13:43:47.460Z,3.27
2018-10-19T13:46:16.208Z,3.08
2018-10-19T13:48:44.955Z,3.20
2018-10-19T13:51:13.728Z,3.08
2018-10-19T13:53:42.375Z,2.55
2018-10-19T13:56:11.073Z,2.83
2018-10-19T13:58:39.877Z,2.77
2018-10-19T14:01:08.713Z,3.50
2018-10-19T14:03:37.426Z,3.65
2018-10-19T14:06:06.262Z,3.65
2018-10-19T14:08:34.985Z,2.80
2018-10-19T14:11:03.780Z,2.83
2018-10-19T14:13:32.525Z,2.55
2018-10-19T14:16:01.328Z,4.17
2018-10-19T14:18:30.130Z,2.60
2018-10-19T14:20:58.838Z,2.70
2018-10-19T14:23:27.570Z,3.08
2018-10-19T14:25:56.343Z,3.08
2018-10-19T14:28:25.029Z,2.60
2018-10-19T14:30:53.791Z,3.33
2018-10-19T14:33:22.628Z,2.58
2018-10-19T14:35:51.295Z,3.40
2018-10-19T14:38:20.897Z,2.65
2018-10-19T14:40:49.634Z,3.00
2018-10-19T14:43:18.353Z,3.67
2018-10-19T14:45:47.118Z,2.80
2018-10-19T14:48:15.876Z,2.65
2018-10-19T14:50:44.617Z,3.20
2018-10-19T14:53:13.377Z,2.65
2018-10-19T14:55:42.108Z,3.50
2018-10-19T14:58:10.857Z,3.37
2018-10-19T15:00:39.607Z,2.95
2018-10-19T15:03:08.379Z,3.05
2018-10-19T15:05:37.148Z,2.90
2018-10-19T15:08:05.919Z,2.65
2018-10-19T15:10:34.883Z,2.47
2018-10-19T15:13:03.435Z,2.70
2018-10-19T15:15:32.232Z,2.75
2018-10-19T15:18:01.000Z,2.67
2018-10-19T15:20:29.725Z,2.50
2018-10-19T15:22:58.489Z,2.75
2018-10-19T15:25:27.288Z,2.58
2018-10-19T15:27:56.046Z,2.47
2018-10-19T15:30:24.786Z,2.65
2018-10-19T15:32:53.629Z,2.22
2018-10-19T15:35:22.340Z,2.30
2018-10-19T15:37:51.074Z,2.90
2018-10-19T15:40:19.808Z,2.58
2018-10-19T15:42:48.498Z,2.40
2018-10-19T15:45:17.380Z,2.43
2018-10-19T15:47:45.986Z,2.43
2018-10-19T15:50:14.900Z,2.47
2018-10-19T15:52:43.595Z,2.70
2018-10-19T15:55:12.305Z,2.70
2018-10-19T15:57:41.008Z,2.60
2018-10-19T16:00:10.711Z,2.47
2018-10-19T16:02:39.412Z,2.40
2018-10-19T16:05:08.251Z,2.43
2018-10-19T16:07:36.908Z,2.47
2018-10-19T16:10:06.584Z,2.47
2018-10-19T16:12:35.332Z,2.33
2018-10-19T16:15:04.163Z,2.40
2018-10-19T16:17:32.918Z,2.37
2018-10-19T16:20:01.607Z,2.80
2018-10-19T16:22:30.336Z,2.20
2018-10-19T16:24:59.088Z,2.40
2018-10-19T16:27:27.864Z,2.53
2018-10-19T16:29:56.631Z,2.43
2018-10-19T16:32:25.341Z,2.57
2018-10-19T16:34:54.108Z,2.70
2018-10-19T16:37:22.768Z,2.60
2018-10-19T16:39:51.561Z,2.20
2018-10-19T16:42:20.230Z,2.67
2018-10-19T16:44:48.933Z,2.40
2018-10-19T16:47:17.691Z,2.70
2018-10-19T16:49:46.458Z,2.60
2018-10-19T16:52:15.190Z,2.87
2018-10-19T16:54:43.877Z,2.57
2018-10-19T16:57:12.606Z,2.50
2018-10-19T16:59:41.311Z,2.17
2018-10-19T17:02:10.029Z,2.43
2018-10-19T17:04:38.773Z,2.50
2018-10-19T17:07:07.565Z,2.53
2018-10-19T17:09:36.322Z,3.20
2018-10-19T17:12:05.542Z,3.07
2018-10-19T17:14:34.264Z,2.67
2018-10-19T17:17:03.053Z,2.33
2018-10-19T17:19:31.826Z,2.53
2018-10-19T17:22:00.551Z,2.93
2018-10-19T17:24:29.329Z,3.23
2018-10-19T17:26:58.103Z,2.30
2018-10-19T17:29:26.806Z,2.30
2018-10-19T17:31:55.497Z,2.67
2018-10-19T17:34:24.198Z,2.47
2018-10-19T17:36:52.980Z,2.53
2018-10-19T17:39:21.672Z,2.37
2018-10-19T17:41:50.418Z,2.63
2018-10-19T17:44:19.105Z,3.27
2018-10-19T17:46:47.838Z,2.60
2018-10-19T17:49:16.765Z,2.30
2018-10-19T17:51:45.488Z,2.50
2018-10-19T17:54:14.429Z,2.63
2018-10-19T17:56:43.126Z,2.93
2018-10-19T17:59:11.922Z,2.70
2018-10-19T18:01:40.627Z,2.43
2018-10-19T18:04:09.352Z,2.63
2018-10-19T18:06:38.041Z,2.67
2018-10-19T18:09:09.351Z,2.33
2018-10-19T18:11:38.291Z,2.07
2018-10-19T18:14:06.966Z,3.17
2018-10-19T18:16:35.804Z,2.90
2018-10-19T18:19:04.722Z,3.03
2018-10-19T18:21:33.537Z,2.67
2018-10-19T18:24:02.287Z,2.70
2018-10-19T18:26:31.090Z,2.83
2018-10-19T18:28:59.839Z,2.90
2018-10-19T18:31:28.531Z,3.30
2018-10-19T18:33:57.229Z,2.90
2018-10-19T18:36:26.027Z,2.97
2018-10-19T18:38:55.196Z,2.60
2018-10-19T18:41:24.028Z,2.60
2018-10-19T18:43:53.210Z,3.10
2018-10-19T18:46:22.726Z,3.80
2018-10-19T18:48:52.179Z,4.57
2018-10-19T18:51:21.809Z,2.77
2018-10-19T18:53:50.668Z,3.27
2018-10-19T18:56:19.385Z,2.93
2018-10-19T18:58:48.120Z,3.30
2018-10-19T19:01:18.236Z,2.63
2018-10-19T19:03:48.813Z,2.90
2018-10-19T19:06:19.092Z,3.30
2018-10-19T19:08:49.125Z,2.90
2018-10-19T19:11:17.988Z,3.07
2018-10-19T19:13:48.959Z,3.67
2018-10-19T19:16:23.005Z,3.07
2018-10-19T19:18:52.040Z,3.13
2018-10-19T19:21:22.288Z,3.53
2018-10-19T19:23:56.600Z,3.37
2018-10-19T19:26:26.581Z,3.53
2018-10-19T19:28:55.538Z,3.73
2018-10-19T19:31:24.231Z,4.00
2018-10-19T19:33:59.215Z,3.50
2018-10-19T19:36:28.942Z,3.63
2018-10-19T19:38:58.619Z,3.80
2018-10-19T19:41:33.416Z,3.70
2018-10-19T19:44:02.224Z,4.00
2018-10-19T19:46:31.064Z,3.77
2018-10-19T19:49:05.246Z,3.30
2018-10-19T19:51:33.940Z,4.13
2018-10-19T19:54:02.672Z,4.27
2018-10-19T19:56:31.432Z,3.93
2018-10-19T19:59:00.295Z,4.13
2018-10-19T20:01:29.112Z,4.37
2018-10-19T20:03:57.811Z,3.67
2018-10-19T20:06:26.525Z,4.07
2018-10-19T20:08:55.250Z,4.00
2018-10-19T20:11:24.002Z,3.80
2018-10-19T20:13:52.712Z,4.00
2018-10-19T20:16:21.433Z,4.33
2018-10-19T20:18:50.372Z,3.83
2018-10-19T20:21:19.389Z,3.70
2018-10-19T20:23:48.073Z,4.30
2018-10-19T20:26:16.849Z,4.40
2018-10-19T20:28:45.502Z,4.37
2018-10-19T20:31:14.230Z,4.30
2018-10-19T20:33:43.004Z,4.30
2018-10-19T20:36:11.718Z,4.67
2018-10-19T20:38:40.443Z,4.60
2018-10-19T20:41:09.197Z,4.67
2018-10-19T20:43:37.892Z,4.83
2018-10-19T20:46:06.639Z,4.07
2018-10-19T20:48:35.432Z,4.80
2018-10-19T20:51:04.209Z,4.47
2018-10-19T20:53:32.942Z,4.60
2018-10-19T20:56:01.723Z,4.70
2018-10-19T20:58:30.465Z,5.50
2018-10-19T21:00:59.457Z,5.00
2018-10-19T21:03:28.193Z,4.43
2018-10-19T21:05:56.911Z,4.73
2018-10-19T21:08:25.596Z,4.63
2018-10-19T21:10:54.398Z,4.77
2018-10-19T21:13:23.179Z,5.43
2018-10-19T21:15:51.843Z,4.83
2018-10-19T21:18:20.616Z,5.03
2018-10-19T21:20:49.581Z,4.67
2018-10-19T21:23:18.420Z,6.20
2018-10-19T21:25:47.108Z,4.50
2018-10-19T21:28:15.824Z,4.70
2018-10-19T21:30:44.560Z,4.67
2018-10-19T21:33:13.285Z,4.97
2018-10-19T21:35:41.955Z,5.53
2018-10-19T21:38:10.779Z,4.63
2018-10-19T21:40:39.666Z,5.00
2018-10-19T21:43:08.540Z,5.23
2018-10-19T21:45:37.228Z,5.90
2018-10-19T21:48:05.928Z,5.80
2018-10-19T21:50:34.701Z,5.20
2018-10-19T21:53:03.478Z,5.73
2018-10-19T21:55:32.141Z,5.40
2018-10-19T21:58:00.954Z,5.33
2018-10-19T22:00:29.638Z,4.70
2018-10-19T22:02:58.338Z,5.80
2018-10-19T22:05:27.073Z,4.90
2018-10-19T22:07:55.879Z,5.70
2018-10-19T22:10:24.583Z,5.57
2018-10-19T22:12:53.527Z,5.90
2018-10-19T22:15:22.266Z,5.97
2018-10-19T22:17:51.006Z,5.87
2018-10-19T22:20:19.742Z,6.87
2018-10-19T22:22:48.523Z,6.27
2018-10-19T22:25:17.327Z,7.13
2018-10-19T22:27:46.031Z,8.00
2018-10-19T22:30:14.904Z,7.73
2018-10-19T22:32:43.605Z,8.03
2018-10-19T22:35:12.456Z,8.07
2018-10-19T22:37:41.124Z,8.40
2018-10-19T22:40:09.811Z,8.60
2018-10-19T22:42:38.496Z,8.20
2018-10-19T22:45:07.225Z,8.03
2018-10-19T22:47:36.077Z,9.03
2018-10-19T22:50:04.844Z,8.03
2018-10-19T22:52:33.554Z,9.27
2018-10-19T22:55:02.345Z,8.97
2018-10-19T22:57:31.063Z,9.23
2018-10-19T22:59:59.778Z,9.50
2018-10-19T23:02:28.527Z,8.63
2018-10-19T23:04:57.298Z,9.43
2018-10-19T23:07:26.028Z,9.53
2018-10-19T23:09:54.805Z,8.50
2018-10-19T23:12:23.537Z,8.07
2018-10-19T23:14:52.245Z,9.13
2018-10-19T23:17:20.915Z,8.60
2018-10-19T23:19:49.622Z,8.77
2018-10-19T23:22:18.513Z,7.97
2018-10-19T23:24:47.254Z,7.33
2018-10-19T23:27:15.942Z,7.70
2018-10-19T23:29:44.676Z,7.47
2018-10-19T23:32:13.702Z,7.60
2018-10-19T23:34:42.512Z,7.30
2018-10-19T23:37:11.329Z,7.17
2018-10-19T23:39:40.077Z,6.80
2018-10-19T23:42:08.791Z,6.67
2018-10-19T23:44:37.494Z,6.03
2018-10-19T23:47:06.278Z,6.10
2018-10-19T23:49:35.019Z,5.87
2018-10-19T23:52:03.763Z,5.50
2018-10-19T23:54:32.466Z,5.50
2018-10-19T23:57:01.169Z,5.80
2018-10-19T23:59:29.824Z,5.30
